Time;durP1;ratioP1;P1;durP2;ratioP2;P2;SDS_P1;SDS_P2;PMS_P1;PMS_P2;Temp;Humidity;BMP_temperature;BMP_pressure;BME280_temperature;BME280_humidity;BME280_pressure;Samples;Min_cycle;Max_cycle;Signal;HPM_P1;HPM_P2
2022/08/08 00:00:16;;;;;;;7.18;5.07;;;15.50;99.90;;;;;;5035096;28;20407;-72
2022/08/08 00:03:00;;;;;;;7.88;5.57;;;15.50;99.90;;;;;;5017642;28;20045;-69
2022/08/08 00:05:52;;;;;;;8.60;5.10;;;15.50;99.90;;;;;;5034859;28;20341;-71
2022/08/08 00:08:29;;;;;;;8.10;4.82;;;15.50;99.90;;;;;;5035238;28;20120;-70
2022/08/08 00:11:23;;;;;;;11.43;5.07;;;15.50;99.90;;;;;;5035272;28;20064;-69
2022/08/08 00:14:08;;;;;;;5.88;4.50;;;15.50;99.90;;;;;;5035062;28;20049;-70
2022/08/08 00:16:46;;;;;;;8.43;5.40;;;15.50;99.90;;;;;;5035085;28;20049;-70
2022/08/08 00:19:20;;;;;;;7.15;5.28;;;15.40;99.90;;;;;;5017878;28;20053;-71
2022/08/08 00:21:51;;;;;;;7.03;5.50;;;15.40;99.90;;;;;;5017452;28;20057;-72
2022/08/08 00:24:23;;;;;;;8.52;5.30;;;15.30;99.90;;;;;;5034740;28;20056;-72
2022/08/08 00:26:53;;;;;;;8.50;5.28;;;15.30;99.90;;;;;;5034917;28;20045;-71
2022/08/08 00:29:42;;;;;;;12.57;5.43;;;15.30;99.90;;;;;;5034409;28;20523;-71
2022/08/08 00:32:18;;;;;;;11.98;6.75;;;15.30;99.90;;;;;;5034867;28;20518;-71
2022/08/08 00:35:11;;;;;;;11.93;9.10;;;15.30;99.90;;;;;;5017750;28;20428;-71
2022/08/08 00:37:43;;;;;;;12.65;8.88;;;15.20;99.90;;;;;;5035108;28;20045;-70
2022/08/08 00:40:22;;;;;;;14.95;9.40;;;15.10;99.90;;;;;;5035108;28;20049;-69
2022/08/08 00:42:59;;;;;;;13.20;8.80;;;15.10;99.90;;;;;;5037491;28;20053;-71
2022/08/08 00:45:45;;;;;;;11.65;8.63;;;15.10;99.90;;;;;;5038934;28;20410;-71
2022/08/08 00:48:46;;;;;;;15.35;10.23;;;15.00;99.90;;;;;;5038803;28;20064;-71
2022/08/08 00:51:36;;;;;;;8.93;6.78;;;15.10;99.90;;;;;;5038915;28;20363;-69
2022/08/08 00:54:28;;;;;;;10.32;7.30;;;15.20;99.90;;;;;;5038779;28;20129;-70
2022/08/08 00:57:15;;;;;;;11.85;8.30;;;15.20;99.90;;;;;;5038802;28;20389;-72
2022/08/08 00:59:46;;;;;;;10.88;7.10;;;15.20;99.90;;;;;;5038568;28;20049;-71
2022/08/08 01:02:40;;;;;;;9.48;6.43;;;15.20;99.90;;;;;;5038556;28;20089;-70
2022/08/08 01:05:34;;;;;;;15.10;7.25;;;15.20;99.90;;;;;;5022513;28;20060;-72
2022/08/08 01:08:34;;;;;;;9.63;7.18;;;15.20;99.90;;;;;;5038325;28;20046;-71
2022/08/08 01:11:18;;;;;;;10.95;7.03;;;15.20;99.90;;;;;;5038370;28;20081;-69
2022/08/08 01:14:06;;;;;;;12.93;6.72;;;15.10;99.90;;;;;;5021328;28;20053;-69
2022/08/08 01:17:02;;;;;;;12.57;6.70;;;15.20;99.90;;;;;;5038263;28;20049;-72
2022/08/08 01:19:49;;;;;;;9.30;6.78;;;15.10;99.90;;;;;;5038163;28;20071;-71
2022/08/08 01:22:45;;;;;;;13.25;7.40;;;15.10;99.90;;;;;;5037938;28;20049;-71
2022/08/08 01:25:49;;;;;;;8.20;6.57;;;15.00;99.90;;;;;;5037944;28;20052;-73
2022/08/08 01:28:30;;;;;;;9.52;6.65;;;15.00;99.90;;;;;;5038249;28;20128;-69
2022/08/08 01:31:19;;;;;;;9.55;6.47;;;15.10;99.90;;;;;;5020714;28;20403;-72
2022/08/08 01:34:06;;;;;;;8.82;6.28;;;15.10;99.90;;;;;;5037953;28;20428;-71
2022/08/08 01:36:50;;;;;;;12.70;7.35;;;15.10;99.90;;;;;;5038129;28;20057;-70
2022/08/08 01:39:55;;;;;;;11.63;7.75;;;15.10;99.90;;;;;;5037511;28;20456;-72
2022/08/08 01:42:57;;;;;;;14.32;8.82;;;15.10;99.90;;;;;;5037826;28;20042;-69
2022/08/08 01:45:36;;;;;;;13.20;8.25;;;15.10;99.90;;;;;;5037474;28;20065;-69
2022/08/08 01:48:19;;;;;;;9.88;7.10;;;15.10;99.90;;;;;;5018059;28;20065;-70
2022/08/08 01:51:03;;;;;;;8.90;6.63;;;15.10;99.90;;;;;;5018093;28;20085;-70
2022/08/08 01:53:28;;;;;;;10.60;7.22;;;15.10;99.90;;;;;;5017306;28;20042;-69
2022/08/08 01:55:53;;;;;;;11.95;7.25;;;15.10;99.90;;;;;;5017605;28;20349;-71
2022/08/08 01:58:53;;;;;;;11.07;7.35;;;15.20;99.90;;;;;;5017532;28;20054;-72
2022/08/08 02:01:42;;;;;;;15.40;8.35;;;15.30;99.90;;;;;;5017668;28;20062;-70
2022/08/08 02:04:17;;;;;;;10.80;6.47;;;15.30;99.90;;;;;;5017498;28;20042;-69
2022/08/08 02:07:18;;;;;;;8.80;6.78;;;15.30;99.90;;;;;;5017577;28;20050;-69
2022/08/08 02:10:02;;;;;;;8.85;6.97;;;15.40;99.90;;;;;;5017550;28;20107;-72
2022/08/08 02:12:36;;;;;;;14.43;7.13;;;15.30;99.90;;;;;;5000207;28;20478;-69
2022/08/08 02:15:15;;;;;;;12.60;7.90;;;15.40;99.90;;;;;;5017403;28;20334;-72
2022/08/08 02:18:00;;;;;;;14.77;8.55;;;15.40;99.90;;;;;;5000194;28;20149;-71
2022/08/08 02:23:41;;;;;;;13.70;8.75;;;15.40;99.90;;;;;;5017166;28;20114;-71
2022/08/08 02:26:45;;;;;;;10.05;7.65;;;15.30;99.90;;;;;;5017585;28;20061;-70
2022/08/08 02:29:40;;;;;;;11.83;7.57;;;15.30;99.90;;;;;;4956497;29;20047;-73
2022/08/08 02:32:25;;;;;;;10.88;6.38;;;15.30;99.90;;;;;;5005989;28;20380;-71
2022/08/08 02:35:22;;;;;;;16.55;7.32;;;15.40;99.90;;;;;;5017178;28;20038;-70
2022/08/08 02:38:25;;;;;;;10.93;6.40;;;15.30;99.90;;;;;;5016946;28;20045;-71
2022/08/08 02:41:13;;;;;;;11.30;6.60;;;15.40;99.90;;;;;;5017326;28;20078;-71
2022/08/08 02:44:12;;;;;;;11.48;7.22;;;15.30;99.90;;;;;;5016818;28;20042;-72
2022/08/08 02:46:57;;;;;;;9.80;7.80;;;15.40;99.90;;;;;;5007957;28;20068;-70
2022/08/08 02:49:31;;;;;;;8.93;6.72;;;15.40;99.90;;;;;;5036604;28;20464;-70
2022/08/08 02:52:21;;;;;;;11.63;7.70;;;15.40;99.90;;;;;;5036329;28;20049;-73
2022/08/08 02:55:26;;;;;;;9.73;7.00;;;15.50;99.90;;;;;;5036483;28;20046;-69
2022/08/08 02:58:09;;;;;;;10.35;6.60;;;15.40;99.90;;;;;;5036325;28;20475;-73
2022/08/08 03:00:54;;;;;;;10.98;7.18;;;15.50;99.90;;;;;;5035884;28;20463;-70
2022/08/08 03:03:51;;;;;;;10.52;7.40;;;15.50;99.90;;;;;;5036415;28;20355;-71
2022/08/08 03:06:35;;;;;;;11.15;6.57;;;15.60;99.90;;;;;;5035526;28;20147;-70
2022/08/08 03:09:37;;;;;;;12.57;7.05;;;15.70;99.90;;;;;;5036078;28;20095;-70
2022/08/08 03:12:28;;;;;;;10.13;6.78;;;15.60;99.90;;;;;;5036373;28;20053;-70
2022/08/08 03:15:12;;;;;;;9.52;6.00;;;15.60;99.90;;;;;;5018681;28;20088;-70
2022/08/08 03:17:45;;;;;;;10.35;5.35;;;15.70;99.90;;;;;;5036073;28;20060;-69
2022/08/08 03:20:12;;;;;;;10.52;5.85;;;15.70;99.90;;;;;;5018313;28;20538;-69
2022/08/08 03:22:50;;;;;;;10.57;6.05;;;15.60;99.90;;;;;;5035792;28;20479;-69
2022/08/08 03:25:17;;;;;;;9.35;6.32;;;15.60;99.90;;;;;;5036202;28;20115;-70
2022/08/08 03:28:05;;;;;;;10.95;5.68;;;15.70;99.90;;;;;;5035788;28;20072;-70
2022/08/08 03:30:31;;;;;;;10.57;6.47;;;15.70;99.90;;;;;;5035811;28;20341;-73
2022/08/08 03:35:41;;;;;;;7.22;5.35;;;15.70;99.90;;;;;;5035822;28;20057;-71
2022/08/08 03:38:08;;;;;;;11.63;5.50;;;15.70;99.90;;;;;;5035707;28;20352;-69
2022/08/08 03:40:35;;;;;;;7.95;5.25;;;15.70;99.90;;;;;;5035633;28;20037;-71
2022/08/08 03:43:01;;;;;;;8.93;5.95;;;15.70;99.90;;;;;;5035788;28;20037;-71
2022/08/08 03:45:28;;;;;;;9.75;5.70;;;15.70;99.90;;;;;;5035484;28;20045;-71
2022/08/08 03:47:58;;;;;;;7.28;6.05;;;15.60;99.90;;;;;;5035540;28;20049;-73
2022/08/08 03:50:25;;;;;;;9.25;5.38;;;15.60;99.90;;;;;;5035251;28;20527;-69
2022/08/08 03:52:52;;;;;;;8.18;5.43;;;15.60;99.90;;;;;;5035210;28;20081;-73
2022/08/08 03:55:18;;;;;;;11.52;6.38;;;15.60;99.90;;;;;;5035527;28;20412;-71
2022/08/08 03:57:53;;;;;;;8.00;5.70;;;15.50;99.90;;;;;;5035340;28;20049;-69
2022/08/08 04:00:21;;;;;;;15.27;7.30;;;15.50;99.90;;;;;;5034803;28;20456;-70
2022/08/08 04:02:58;;;;;;;10.65;6.85;;;15.50;99.90;;;;;;5035186;28;20045;-70
2022/08/08 04:05:26;;;;;;;12.07;7.35;;;15.50;99.90;;;;;;5035107;28;20124;-70
2022/08/08 04:07:52;;;;;;;10.18;6.68;;;15.50;99.90;;;;;;5034858;28;20048;-69
2022/08/08 04:10:17;;;;;;;11.70;6.95;;;15.50;99.90;;;;;;5035327;28;20049;-70
2022/08/08 04:12:43;;;;;;;9.15;6.85;;;15.50;99.90;;;;;;5035261;28;20046;-69
2022/08/08 04:15:09;;;;;;;10.30;6.93;;;15.50;99.90;;;;;;5035311;28;20384;-70
2022/08/08 04:17:35;;;;;;;11.82;6.70;;;15.50;99.90;;;;;;5034811;28;20136;-71
2022/08/08 04:20:00;;;;;;;11.02;8.30;;;15.60;99.90;;;;;;5034638;28;20136;-70
2022/08/08 04:22:27;;;;;;;14.18;8.60;;;15.60;99.90;;;;;;5034732;28;20057;-71
2022/08/08 04:24:53;;;;;;;14.13;9.00;;;15.60;99.90;;;;;;5034903;28;20042;-70
2022/08/08 04:27:19;;;;;;;12.23;8.57;;;15.60;99.90;;;;;;5035018;28;20045;-69
2022/08/08 04:29:46;;;;;;;14.27;9.43;;;15.60;99.90;;;;;;5035004;28;20138;-70
2022/08/08 04:32:13;;;;;;;12.10;7.63;;;15.60;99.90;;;;;;5017337;28;20060;-69
2022/08/08 04:34:39;;;;;;;17.17;8.57;;;15.60;99.90;;;;;;5034888;28;20049;-69
2022/08/08 04:37:05;;;;;;;8.77;7.38;;;15.60;99.90;;;;;;5034915;28;20041;-71
2022/08/08 04:39:31;;;;;;;12.70;8.25;;;15.70;99.90;;;;;;5034713;28;20049;-73
2022/08/08 04:41:57;;;;;;;12.23;6.80;;;15.70;99.90;;;;;;5034939;28;20053;-70
2022/08/08 04:44:22;;;;;;;10.20;6.95;;;15.70;99.90;;;;;;5034833;28;20088;-70
2022/08/08 04:46:48;;;;;;;9.15;6.03;;;15.70;99.90;;;;;;5034629;28;20436;-71
2022/08/08 04:49:13;;;;;;;13.57;6.80;;;15.70;99.90;;;;;;5034657;28;20060;-70
2022/08/08 04:51:39;;;;;;;8.30;6.53;;;15.80;99.90;;;;;;5034670;28;20049;-70
2022/08/08 04:54:05;;;;;;;9.40;7.07;;;15.80;99.90;;;;;;5034847;28;20124;-71
2022/08/08 04:56:30;;;;;;;9.75;6.35;;;15.80;99.90;;;;;;5017340;28;20042;-69
2022/08/08 04:58:56;;;;;;;8.85;6.47;;;15.80;99.90;;;;;;5034871;28;20050;-71
2022/08/08 05:01:21;;;;;;;10.02;6.40;;;15.80;99.90;;;;;;5034647;28;20041;-73
2022/08/08 05:03:48;;;;;;;9.30;6.63;;;15.80;99.90;;;;;;5034459;28;20379;-71
2022/08/08 05:06:13;;;;;;;11.85;6.50;;;15.80;99.90;;;;;;5034596;28;20045;-70
2022/08/08 05:08:40;;;;;;;9.27;5.72;;;15.80;99.90;;;;;;5034650;28;20046;-69
2022/08/08 05:11:06;;;;;;;8.90;6.50;;;15.80;99.90;;;;;;5034579;28;20042;-72
2022/08/08 05:13:32;;;;;;;11.98;7.03;;;15.90;99.90;;;;;;5034863;28;20041;-73
2022/08/08 05:15:58;;;;;;;13.35;7.45;;;15.90;99.90;;;;;;5034501;28;20053;-72
2022/08/08 05:18:24;;;;;;;12.32;7.82;;;15.90;99.90;;;;;;5034581;28;20124;-71
2022/08/08 05:20:49;;;;;;;12.55;6.53;;;15.90;99.90;;;;;;5034486;28;20071;-69
2022/08/08 05:23:15;;;;;;;9.70;6.47;;;15.90;99.90;;;;;;5034175;28;20145;-71
2022/08/08 05:25:40;;;;;;;9.75;6.45;;;16.00;99.90;;;;;;5034441;28;20065;-70
2022/08/08 05:28:06;;;;;;;10.18;6.13;;;15.90;99.90;;;;;;5034500;28;20361;-69
2022/08/08 05:30:32;;;;;;;8.85;6.40;;;16.00;99.90;;;;;;5038206;28;20047;-71
2022/08/08 05:32:58;;;;;;;8.25;6.10;;;15.90;99.90;;;;;;5020237;28;20045;-70
2022/08/08 05:35:26;;;;;;;13.15;7.07;;;16.00;99.90;;;;;;5038072;28;20037;-70
2022/08/08 05:38:02;;;;;;;9.68;5.97;;;16.00;99.90;;;;;;5037805;28;20046;-71
2022/08/08 05:40:28;;;;;;;9.63;6.70;;;16.00;99.90;;;;;;5038180;28;20038;-71
2022/08/08 05:43:00;;;;;;;10.80;7.38;;;16.10;99.90;;;;;;5037852;28;20133;-72
2022/08/08 05:45:27;;;;;;;11.00;8.13;;;16.00;99.90;;;;;;5037750;28;20049;-70
2022/08/08 05:47:53;;;;;;;11.13;6.95;;;16.10;99.90;;;;;;5001718;28;20460;-69
2022/08/08 05:50:19;;;;;;;9.40;7.32;;;16.20;99.90;;;;;;5017886;28;20053;-71
2022/08/08 05:52:46;;;;;;;12.10;7.85;;;16.20;99.90;;;;;;5017879;28;20112;-71
2022/08/08 05:55:12;;;;;;;15.13;7.90;;;16.20;99.90;;;;;;5017922;28;20402;-66
2022/08/08 05:57:38;;;;;;;11.77;7.30;;;16.20;99.90;;;;;;5017716;28;20041;-67
2022/08/08 06:00:07;;;;;;;10.68;7.25;;;16.30;99.90;;;;;;5017639;28;20046;-69
2022/08/08 06:05:21;;;;;;;12.95;7.35;;;16.50;99.90;;;;;;5017745;28;20046;-69
2022/08/08 06:07:49;;;;;;;10.95;7.28;;;16.50;99.90;;;;;;5017734;28;20129;-68
2022/08/08 06:10:16;;;;;;;11.40;6.32;;;16.60;99.90;;;;;;5017003;28;20061;-67
2022/08/08 06:12:43;;;;;;;9.02;7.25;;;16.70;99.90;;;;;;5017469;28;20082;-68
2022/08/08 06:15:10;;;;;;;8.93;6.25;;;16.70;99.90;;;;;;5017362;28;20124;-69
2022/08/08 06:17:40;;;;;;;10.32;5.97;;;16.80;99.90;;;;;;5000538;28;20124;-73
2022/08/08 06:20:09;;;;;;;7.70;5.07;;;17.00;99.90;;;;;;5017451;28;20066;-70
2022/08/08 06:22:35;;;;;;;9.52;4.78;;;17.10;99.90;;;;;;5017263;28;20441;-71
2022/08/08 06:25:01;;;;;;;7.93;4.28;;;17.20;99.90;;;;;;5016836;28;20048;-71
2022/08/08 06:27:51;;;;;;;6.88;3.95;;;17.30;99.90;;;;;;5017194;28;20050;-70
2022/08/08 06:30:18;;;;;;;8.00;3.88;;;17.40;99.90;;;;;;5008315;28;20058;-67
2022/08/08 06:32:57;;;;;;;7.63;4.32;;;17.50;99.90;;;;;;4999719;28;20049;-68
2022/08/08 06:35:24;;;;;;;9.43;3.85;;;17.50;99.90;;;;;;5016893;28;20483;-70
2022/08/08 06:38:00;;;;;;;7.95;4.20;;;17.60;99.90;;;;;;5016629;28;20042;-70
2022/08/08 06:40:30;;;;;;;7.93;4.70;;;17.70;99.90;;;;;;5017026;28;20050;-68
2022/08/08 06:43:00;;;;;;;7.30;4.60;;;17.80;99.90;;;;;;5016917;28;20045;-69
2022/08/08 06:45:26;;;;;;;6.00;4.22;;;17.90;99.90;;;;;;5016868;28;20054;-67
2022/08/08 06:47:52;;;;;;;6.25;4.15;;;18.00;99.90;;;;;;5016765;28;20054;-68
2022/08/08 06:50:18;;;;;;;5.68;3.90;;;18.00;99.90;;;;;;5016698;28;20460;-69
2022/08/08 06:52:44;;;;;;;6.60;4.38;;;18.10;99.90;;;;;;5016442;28;20505;-69
2022/08/08 06:55:10;;;;;;;9.25;4.60;;;18.20;99.90;;;;;;5016832;28;20046;-67
2022/08/08 06:57:36;;;;;;;7.28;4.28;;;18.30;99.90;;;;;;5016858;28;20479;-70
2022/08/08 07:00:05;;;;;;;6.40;3.40;;;18.20;99.90;;;;;;5016620;28;20413;-67
2022/08/08 07:02:33;;;;;;;8.38;3.75;;;18.20;99.90;;;;;;4999204;28;20042;-68
2022/08/08 07:05:07;;;;;;;5.78;3.38;;;18.20;99.90;;;;;;5016527;28;20107;-68
2022/08/08 07:07:49;;;;;;;7.13;3.03;;;18.20;99.90;;;;;;5016445;28;20095;-70
2022/08/08 07:10:20;;;;;;;6.40;3.30;;;18.30;99.90;;;;;;5016425;28;20038;-69
2022/08/08 07:12:59;;;;;;;10.15;4.13;;;18.30;99.90;;;;;;5015944;28;20104;-68
2022/08/08 07:15:43;;;;;;;6.18;4.15;;;18.30;99.90;;;;;;5016271;28;20388;-71
2022/08/08 07:18:09;;;;;;;6.80;3.60;;;18.30;99.90;;;;;;5016129;28;20452;-69
2022/08/08 07:20:42;;;;;;;6.93;4.13;;;18.40;99.90;;;;;;5016429;28;20378;-67
2022/08/08 07:23:31;;;;;;;7.28;3.78;;;18.40;99.90;;;;;;5016081;28;20049;-67
2022/08/08 07:26:01;;;;;;;6.88;3.83;;;18.40;99.90;;;;;;5016072;28;20125;-67
2022/08/08 07:28:28;;;;;;;11.40;4.15;;;18.50;99.90;;;;;;5016051;28;20050;-71
2022/08/08 07:30:54;;;;;;;7.68;3.90;;;18.60;99.90;;;;;;5016147;28;20054;-69
2022/08/08 07:33:23;;;;;;;9.68;4.40;;;18.60;99.90;;;;;;5015789;28;20049;-68
2022/08/08 07:35:51;;;;;;;10.82;3.95;;;18.60;99.90;;;;;;5015901;28;20052;-71
2022/08/08 07:38:17;;;;;;;5.75;3.63;;;18.70;99.90;;;;;;4998790;28;20368;-68
2022/08/08 07:40:44;;;;;;;6.20;4.32;;;18.70;99.90;;;;;;5015903;28;20409;-69
2022/08/08 07:43:11;;;;;;;6.70;3.90;;;18.80;99.90;;;;;;5015962;28;20045;-67
2022/08/08 07:45:37;;;;;;;4.97;3.63;;;18.90;99.90;;;;;;4998333;28;20054;-70
2022/08/08 07:48:04;;;;;;;11.05;3.80;;;18.80;99.90;;;;;;5035384;28;20061;-68
2022/08/08 07:50:32;;;;;;;7.75;3.58;;;18.90;99.90;;;;;;5035521;28;20087;-68
2022/08/08 07:53:01;;;;;;;5.45;3.30;;;18.90;99.90;;;;;;5029379;28;20049;-70
2022/08/08 07:55:29;;;;;;;7.03;3.25;;;19.10;99.90;;;;;;5035304;28;20045;-67
2022/08/08 07:57:57;;;;;;;5.50;3.38;;;19.10;99.90;;;;;;5035332;28;20063;-69
2022/08/08 08:00:29;;;;;;;5.57;3.10;;;19.20;99.90;;;;;;5035340;28;20049;-70
2022/08/08 08:03:10;;;;;;;6.10;3.05;;;19.40;99.90;;;;;;5035077;28;20060;-66
2022/08/08 08:05:41;;;;;;;10.93;3.45;;;19.40;99.90;;;;;;5035088;28;20052;-69
2022/08/08 08:08:17;;;;;;;10.25;3.72;;;19.30;99.90;;;;;;5035232;28;20403;-73
2022/08/08 08:10:50;;;;;;;6.85;3.20;;;19.30;99.90;;;;;;5035076;28;20045;-73
2022/08/08 08:13:30;;;;;;;6.35;3.65;;;19.40;99.90;;;;;;5035190;28;20045;-70
2022/08/08 08:16:02;;;;;;;6.32;3.30;;;19.30;99.90;;;;;;5035244;28;20352;-72
2022/08/08 08:18:46;;;;;;;4.53;3.28;;;19.40;99.90;;;;;;5035096;28;20390;-70
2022/08/08 08:21:13;;;;;;;11.20;3.92;;;19.50;99.90;;;;;;5034985;28;20061;-72
2022/08/08 08:23:39;;;;;;;6.50;3.28;;;19.40;99.90;;;;;;5034875;28;20435;-71
2022/08/08 08:26:05;;;;;;;6.60;3.50;;;19.50;99.90;;;;;;5035041;28;20099;-70
2022/08/08 08:28:31;;;;;;;11.75;3.75;;;19.50;99.90;;;;;;5033798;28;20434;-72
2022/08/08 08:31:01;;;;;;;8.48;3.58;;;19.50;99.90;;;;;;5034884;28;20059;-70
2022/08/08 08:33:27;;;;;;;6.30;3.55;;;19.50;99.90;;;;;;5034768;28;20137;-71
2022/08/08 08:35:53;;;;;;;7.63;3.10;;;19.50;99.90;;;;;;5034918;28;20084;-69
2022/08/08 08:38:18;;;;;;;6.45;3.42;;;19.40;99.90;;;;;;5034971;28;20046;-69
2022/08/08 08:40:44;;;;;;;7.72;3.50;;;19.40;99.90;;;;;;5034905;28;20130;-68
2022/08/08 08:43:10;;;;;;;7.07;3.28;;;19.40;99.90;;;;;;5034821;28;20046;-71
2022/08/08 08:45:36;;;;;;;5.10;3.70;;;19.40;99.90;;;;;;5034732;28;20049;-69
2022/08/08 08:48:03;;;;;;;6.90;3.10;;;19.30;99.90;;;;;;5034030;28;20053;-68
2022/08/08 08:50:30;;;;;;;8.65;4.32;;;19.30;99.90;;;;;;5034747;28;20042;-68
2022/08/08 08:52:58;;;;;;;7.90;4.35;;;19.30;99.90;;;;;;5034776;28;20096;-69
2022/08/08 08:55:25;;;;;;;8.82;4.03;;;19.30;99.90;;;;;;5034652;28;20045;-70
2022/08/08 08:57:54;;;;;;;5.57;3.30;;;19.30;99.90;;;;;;5034484;28;20056;-69
2022/08/08 09:00:20;;;;;;;8.10;3.80;;;19.30;99.90;;;;;;5034616;28;20053;-70
2022/08/08 09:02:49;;;;;;;8.68;3.58;;;19.30;99.90;;;;;;5034642;28;20372;-70
2022/08/08 09:05:15;;;;;;;7.72;3.95;;;19.30;99.90;;;;;;5038140;28;20128;-68
2022/08/08 09:07:42;;;;;;;7.82;3.25;;;19.30;99.90;;;;;;5038482;28;20050;-69
2022/08/08 09:10:11;;;;;;;5.53;3.70;;;19.20;99.90;;;;;;5038344;28;20388;-69
2022/08/08 09:12:38;;;;;;;8.60;3.92;;;19.20;99.90;;;;;;5038280;28;20056;-70
2022/08/08 09:15:05;;;;;;;11.18;5.10;;;19.20;99.90;;;;;;5038503;28;20131;-70
2022/08/08 09:17:31;;;;;;;5.00;3.20;;;19.20;99.90;;;;;;5038423;28;20052;-69
2022/08/08 09:19:58;;;;;;;7.40;3.42;;;19.10;99.90;;;;;;5037770;28;20076;-68
2022/08/08 09:22:26;;;;;;;12.75;3.65;;;19.20;99.90;;;;;;5037644;28;20460;-69
2022/08/08 09:24:53;;;;;;;6.95;3.33;;;19.10;99.90;;;;;;5038378;28;20128;-69
2022/08/08 09:27:20;;;;;;;6.53;3.85;;;19.20;99.90;;;;;;5037907;28;20364;-69
2022/08/08 09:30:09;;;;;;;7.47;4.05;;;19.20;99.90;;;;;;5037877;28;20080;-69
2022/08/08 09:32:39;;;;;;;5.97;3.65;;;19.20;99.90;;;;;;5038034;28;20048;-70
2022/08/08 09:35:09;;;;;;;5.18;3.45;;;19.30;99.90;;;;;;5037908;28;20372;-69
2022/08/08 09:37:43;;;;;;;5.22;3.22;;;19.40;99.90;;;;;;5037649;28;20476;-68
2022/08/08 09:40:11;;;;;;;3.95;3.08;;;19.30;99.90;;;;;;5033965;28;20057;-70
2022/08/08 09:42:45;;;;;;;6.65;3.20;;;19.30;99.90;;;;;;5036872;28;20057;-69
2022/08/08 09:45:16;;;;;;;;;;;19.40;99.90;;;;;;5038148;28;20460;-68
2022/08/08 09:47:42;;;;;;;4.65;3.40;;;19.60;99.90;;;;;;5037786;28;19921;-68
2022/08/08 09:50:14;;;;;;;5.32;3.25;;;19.60;99.90;;;;;;5134633;22;20445;-70
2022/08/08 09:52:45;;;;;;;6.00;2.92;;;19.80;99.90;;;;;;5017857;28;20085;-70
2022/08/08 09:55:10;;;;;;;4.15;2.70;;;19.90;99.90;;;;;;5036733;28;20050;-70
2022/08/08 09:57:38;;;;;;;6.90;3.15;;;20.00;99.90;;;;;;5033675;28;20052;-69
2022/08/08 10:00:09;;;;;;;6.07;3.15;;;20.10;99.90;;;;;;5017634;28;20125;-70
2022/08/08 10:02:40;;;;;;;5.00;2.90;;;20.10;99.90;;;;;;5017401;28;20496;-68
2022/08/08 10:05:11;;;;;;;3.55;2.60;;;20.20;99.90;;;;;;5017213;28;20054;-69
2022/08/08 10:07:45;;;;;;;3.83;2.75;;;20.30;99.90;;;;;;5017666;28;20054;-69
2022/08/08 10:10:11;;;;;;;7.22;3.28;;;20.40;99.90;;;;;;5017461;28;20053;-70
2022/08/08 10:12:39;;;;;;;4.60;2.63;;;20.50;99.90;;;;;;5016765;28;20053;-70
2022/08/08 10:15:07;;;;;;;4.57;2.78;;;20.60;99.90;;;;;;5017459;28;20468;-68
2022/08/08 10:17:44;;;;;;;6.30;3.33;;;20.70;99.90;;;;;;5017285;28;20057;-71
2022/08/08 10:20:10;;;;;;;5.80;3.03;;;20.80;99.90;;;;;;5017503;28;20084;-70
2022/08/08 10:22:49;;;;;;;4.28;2.65;;;20.90;99.90;;;;;;5017208;28;20061;-70
2022/08/08 10:25:19;;;;;;;5.38;2.95;;;21.00;99.90;;;;;;5017344;28;20112;-69
2022/08/08 10:27:50;;;;;;;5.75;3.10;;;20.90;99.90;;;;;;5017349;28;20061;-71
2022/08/08 10:30:17;;;;;;;9.60;2.50;;;21.10;99.90;;;;;;5017492;28;20037;-69
2022/08/08 10:32:55;;;;;;;5.57;2.78;;;21.10;99.90;;;;;;5017310;28;20380;-69
2022/08/08 10:35:31;;;;;;;6.03;2.72;;;21.30;99.90;;;;;;5017229;28;20045;-71
2022/08/08 10:38:02;;;;;;;4.78;2.50;;;21.30;99.90;;;;;;5017036;28;20046;-68
2022/08/08 10:40:29;;;;;;;6.07;2.33;;;21.40;99.90;;;;;;5017182;28;20128;-69
2022/08/08 10:43:01;;;;;;;3.47;2.35;;;21.40;99.90;;;;;;5016986;28;20137;-69
2022/08/08 10:45:26;;;;;;;4.35;2.15;;;21.30;99.90;;;;;;5016109;28;20041;-70
2022/08/08 10:47:54;;;;;;;3.70;2.30;;;21.20;99.90;;;;;;5016965;28;20057;-69
2022/08/08 10:50:22;;;;;;;4.20;2.28;;;21.30;99.90;;;;;;5034573;28;20513;-69
2022/08/08 10:52:47;;;;;;;4.07;2.40;;;21.30;99.90;;;;;;5036596;28;20050;-69
2022/08/08 10:55:18;;;;;;;8.32;2.90;;;21.40;99.90;;;;;;5018918;28;20121;-71
2022/08/08 10:57:46;;;;;;;6.20;2.67;;;21.40;99.90;;;;;;5019030;28;20373;-72
2022/08/08 11:00:24;;;;;;;5.95;2.40;;;21.30;99.90;;;;;;5036516;28;20095;-71
2022/08/08 11:02:50;;;;;;;5.90;2.80;;;21.50;99.90;;;;;;5036086;28;20045;-69
2022/08/08 11:05:17;;;;;;;4.15;2.47;;;21.30;99.90;;;;;;5036317;28;20049;-69
2022/08/08 11:07:48;;;;;;;5.55;2.47;;;21.60;99.90;;;;;;5036249;28;20095;-72
2022/08/08 11:10:16;;;;;;;5.63;3.10;;;21.60;99.90;;;;;;5036225;28;20041;-72
2022/08/08 11:12:49;;;;;;;4.30;2.47;;;21.80;99.90;;;;;;5018769;28;20098;-71
2022/08/08 11:15:26;;;;;;;4.07;2.40;;;21.80;99.90;;;;;;5036247;28;20111;-69
2022/08/08 11:17:52;;;;;;;5.95;2.55;;;22.00;99.90;;;;;;5018708;28;20045;-70
2022/08/08 11:20:20;;;;;;;3.55;2.20;;;21.80;99.90;;;;;;5036103;28;20059;-69
2022/08/08 11:22:51;;;;;;;4.57;2.03;;;21.90;99.90;;;;;;5035887;28;20075;-70
2022/08/08 11:25:22;;;;;;;5.05;2.58;;;21.90;99.90;;;;;;5035903;28;20107;-70
2022/08/08 11:27:51;;;;;;;4.75;2.17;;;22.00;99.90;;;;;;5034925;28;20132;-70
2022/08/08 11:30:16;;;;;;;6.10;2.60;;;22.00;99.90;;;;;;5018621;28;20072;-70
2022/08/08 11:32:42;;;;;;;5.32;2.08;;;22.00;99.90;;;;;;5035565;28;20460;-71
2022/08/08 11:35:10;;;;;;;4.75;2.05;;;22.00;99.90;;;;;;5035821;28;20440;-71
2022/08/08 11:37:37;;;;;;;4.18;2.22;;;22.00;99.90;;;;;;5035843;28;20037;-69
2022/08/08 11:40:09;;;;;;;4.47;2.22;;;21.80;99.90;;;;;;5036084;28;20045;-70
2022/08/08 11:42:35;;;;;;;4.85;2.03;;;21.80;99.90;;;;;;5002140;28;20091;-72
2022/08/08 11:45:02;;;;;;;2.75;1.98;;;21.90;99.90;;;;;;5035597;28;20053;-69
2022/08/08 11:47:27;;;;;;;4.20;2.10;;;22.10;99.90;;;;;;5035512;28;20049;-71
2022/08/08 11:49:58;;;;;;;6.63;3.05;;;22.10;99.90;;;;;;5035538;28;20053;-68
2022/08/08 11:52:25;;;;;;;6.57;3.65;;;22.10;99.90;;;;;;5018159;28;20076;-70
2022/08/08 11:54:51;;;;;;;4.70;2.05;;;22.30;99.90;;;;;;5035158;28;20470;-68
2022/08/08 11:57:16;;;;;;;4.05;1.95;;;22.40;99.90;;;;;;5034997;28;20053;-68
2022/08/08 11:59:51;;;;;;;5.15;2.05;;;22.50;99.90;;;;;;5035173;28;20061;-70
2022/08/08 12:02:16;;;;;;;1.95;1.55;;;22.40;99.90;;;;;;5034807;28;20056;-70
2022/08/08 12:04:42;;;;;;;3.65;1.98;;;22.30;99.90;;;;;;5035325;28;20448;-69
2022/08/08 12:07:08;;;;;;;3.15;2.05;;;22.50;99.90;;;;;;5035323;28;20111;-72
2022/08/08 12:09:34;;;;;;;5.95;1.75;;;22.60;99.90;;;;;;5035043;28;20052;-69
2022/08/08 12:12:00;;;;;;;5.18;2.10;;;22.70;99.90;;;;;;5016756;28;20053;-71
2022/08/08 12:14:26;;;;;;;3.05;1.95;;;22.80;99.90;;;;;;5017552;28;20467;-71
2022/08/08 12:16:53;;;;;;;3.17;1.90;;;22.80;99.90;;;;;;5035104;28;20037;-69
2022/08/08 12:19:20;;;;;;;5.38;2.60;;;22.90;99.90;;;;;;5035139;28;20419;-71
2022/08/08 12:21:46;;;;;;;2.30;1.85;;;22.90;99.90;;;;;;5034492;28;20046;-70
2022/08/08 12:24:14;;;;;;;6.00;2.17;;;23.00;99.90;;;;;;5035072;28;20414;-70
2022/08/08 12:26:41;;;;;;;3.60;1.70;;;22.80;99.90;;;;;;5035231;28;20111;-71
2022/08/08 12:29:20;;;;;;;2.72;1.60;;;22.80;99.90;;;;;;5034979;28;20051;-69
2022/08/08 12:31:47;;;;;;;5.15;2.58;;;22.60;99.90;;;;;;5035076;28;20041;-71
2022/08/08 12:34:12;;;;;;;4.70;2.03;;;22.40;99.90;;;;;;5034973;28;20068;-68
2022/08/08 12:36:40;;;;;;;4.50;2.35;;;22.10;99.90;;;;;;5017896;28;20459;-69
2022/08/08 12:39:07;;;;;;;2.38;1.98;;;21.90;99.90;;;;;;5038317;28;20041;-71
2022/08/08 12:41:35;;;;;;;5.78;2.30;;;21.80;99.90;;;;;;5039014;28;20124;-68
2022/08/08 12:44:08;;;;;;;4.53;2.30;;;21.70;99.90;;;;;;5039086;28;20053;-70
2022/08/08 12:46:35;;;;;;;3.92;2.00;;;21.70;99.90;;;;;;5038909;28;20088;-71
2022/08/08 12:49:03;;;;;;;4.20;2.50;;;21.80;99.90;;;;;;5038550;28;20142;-70
2022/08/08 12:51:40;;;;;;;3.75;2.10;;;21.80;99.90;;;;;;5038751;28;20065;-68
2022/08/08 12:54:08;;;;;;;4.25;2.17;;;21.80;99.90;;;;;;5038792;28;20356;-68
2022/08/08 12:56:38;;;;;;;4.15;1.95;;;21.90;99.90;;;;;;5038885;28;20079;-70
2022/08/08 12:59:24;;;;;;;3.10;1.88;;;22.00;99.90;;;;;;5038501;28;20050;-70
2022/08/08 13:02:00;;;;;;;6.43;2.58;;;22.00;99.90;;;;;;5038454;28;20041;-69
2022/08/08 13:04:29;;;;;;;6.72;2.35;;;21.90;99.90;;;;;;5038673;28;20355;-70
2022/08/08 13:07:08;;;;;;;4.75;3.00;;;21.70;99.90;;;;;;5021411;28;20128;-71
2022/08/08 13:10:03;;;;;;;3.42;2.33;;;21.60;99.90;;;;;;5038327;28;20041;-69
2022/08/08 13:12:35;;;;;;;6.75;3.00;;;21.50;99.90;;;;;;5038370;28;20052;-71
2022/08/08 13:15:05;;;;;;;6.78;2.92;;;21.40;99.90;;;;;;5038201;28;20045;-69
2022/08/08 13:17:32;;;;;;;8.30;2.90;;;21.30;99.90;;;;;;5038517;28;20060;-71
2022/08/08 13:19:58;;;;;;;5.57;2.60;;;21.20;99.90;;;;;;5038371;28;20053;-71